Time;durP1;ratioP1;P1;durP2;ratioP2;P2;SDS_P1;SDS_P2;PMS_P1;PMS_P2;Temp;Humidity;BMP_temperature;BMP_pressure;BME280_temperature;BME280_humidity;BME280_pressure;Samples;Min_cycle;Max_cycle;Signal;HPM_P1;HPM_P2
2021/05/04 00:02:12;;;;;;;3.47;2.72;;;;;;;1.64;74.17;99290.45;1764613;80;21193;-75
2021/05/04 00:04:39;;;;;;;3.37;2.25;;;;;;;1.61;74.29;99291.80;1756646;80;28290;-75
2021/05/04 00:07:06;;;;;;;3.90;2.17;;;;;;;1.56;74.20;99291.42;1761332;79;21184;-76
2021/05/04 00:09:33;;;;;;;6.20;2.83;;;;;;;1.54;74.29;99285.48;1762391;79;21203;-75
2021/05/04 00:12:01;;;;;;;3.47;2.10;;;;;;;1.51;74.33;99280.39;1758343;80;21271;-75
2021/05/04 00:14:28;;;;;;;3.90;2.42;;;;;;;1.47;74.38;99283.87;1767990;79;28277;-75
2021/05/04 00:16:55;;;;;;;;;;;;;;;1.45;74.44;99272.75;1771527;80;21187;-75
2021/05/04 00:19:22;;;;;;;3.37;2.10;;;;;;;1.44;74.48;99263.80;1758453;80;20255;-75
2021/05/04 00:21:49;;;;;;;6.95;3.22;;;;;;;1.40;74.44;99270.72;1731077;81;21279;-75
2021/05/04 00:24:16;;;;;;;3.75;2.65;;;;;;;1.34;74.45;99269.52;1764100;79;21175;-75
2021/05/04 00:26:42;;;;;;;5.53;2.77;;;;;;;1.32;74.51;99273.86;1766057;80;21156;-75
2021/05/04 00:29:09;;;;;;;3.00;2.45;;;;;;;1.28;74.58;99277.34;1757971;79;21102;-75
2021/05/04 00:31:37;;;;;;;7.90;2.90;;;;;;;1.25;74.59;99277.40;1760648;79;21578;-75
2021/05/04 00:34:04;;;;;;;5.53;2.95;;;;;;;1.22;74.56;99272.30;1730523;81;21430;-75
2021/05/04 00:36:31;;;;;;;6.75;3.10;;;;;;;1.17;74.62;99271.53;1733374;80;21208;-75
2021/05/04 00:38:58;;;;;;;7.62;3.05;;;;;;;1.15;74.68;99278.41;1763460;79;21110;-76
2021/05/04 00:41:25;;;;;;;5.15;2.50;;;;;;;1.10;74.68;99271.63;1762230;79;22021;-76
2021/05/04 00:43:52;;;;;;;4.28;2.70;;;;;;;1.07;74.74;99271.69;1764319;80;21212;-75
2021/05/04 00:46:19;;;;;;;6.90;3.33;;;;;;;1.06;74.78;99277.68;1762873;78;21198;-75
2021/05/04 00:48:46;;;;;;;6.58;3.20;;;;;;;1.03;74.80;99267.45;1747270;80;22011;-75
2021/05/04 00:51:13;;;;;;;7.03;3.37;;;;;;;1.02;74.83;99275.20;1761364;80;21248;-75
2021/05/04 00:53:41;;;;;;;4.58;3.10;;;;;;;0.97;74.79;99275.27;1759559;80;23209;-75
2021/05/04 00:56:10;;;;;;;4.17;2.90;;;;;;;0.92;74.75;99271.91;1755971;80;21566;-75
2021/05/04 00:58:40;;;;;;;5.87;2.65;;;;;;;0.89;74.83;99268.10;1757981;80;21383;-75
2021/05/04 01:01:07;;;;;;;3.95;3.05;;;;;;;0.85;74.88;99265.18;1768777;79;21092;-75
2021/05/04 01:03:34;;;;;;;7.10;3.33;;;;;;;0.84;74.92;99263.46;1741765;80;21200;-75
2021/05/04 01:06:01;;;;;;;5.67;3.42;;;;;;;0.80;74.99;99261.83;1727550;81;21275;-74
2021/05/04 01:08:28;;;;;;;6.15;2.90;;;;;;;0.78;74.99;99259.70;1726190;82;21156;-75
2021/05/04 01:10:56;;;;;;;3.67;2.47;;;;;;;0.74;75.06;99256.78;1745958;80;21431;-75
2021/05/04 01:13:23;;;;;;;5.95;3.02;;;;;;;0.71;75.09;99259.41;1744472;81;21539;-75
2021/05/04 01:15:50;;;;;;;3.50;2.50;;;;;;;0.66;75.09;99256.45;1729055;81;21182;-75
2021/05/04 01:18:17;;;;;;;5.60;2.75;;;;;;;0.64;75.13;99255.64;1702938;81;21124;-74
2021/05/04 01:20:50;;;;;;;6.95;5.78;;;;;;;0.60;75.17;99265.53;1716506;81;22025;-75
2021/05/04 01:23:17;;;;;;;6.15;3.77;;;;;;;0.57;75.19;99247.59;1730412;81;21401;-75
2021/05/04 01:25:44;;;;;;;3.83;2.55;;;;;;;0.54;75.20;99245.52;1728072;81;21795;-75
2021/05/04 01:28:11;;;;;;;6.20;2.58;;;;;;;0.48;75.17;99240.03;1723877;81;21658;-75
2021/05/04 01:30:38;;;;;;;5.17;3.17;;;;;;;0.44;75.22;99240.92;1712669;81;21183;-75
2021/05/04 01:33:05;;;;;;;3.33;2.77;;;;;;;0.38;75.27;99243.58;1734471;81;21212;-75
2021/05/04 01:35:33;;;;;;;7.90;3.27;;;;;;;0.34;75.36;99234.23;1731482;81;21422;-75
2021/05/04 01:38:01;;;;;;;5.67;3.35;;;;;;;0.32;75.45;99241.11;1742952;81;21228;-75
2021/05/04 01:40:28;;;;;;;9.10;3.35;;;;;;;0.29;75.48;99241.15;1724677;81;21602;-75
2021/05/04 01:42:56;;;;;;;4.97;3.60;;;;;;;0.25;75.45;99236.91;1751948;80;22533;-75
2021/05/04 01:45:22;;;;;;;5.03;3.70;;;;;;;0.21;75.50;99238.23;1720642;81;21354;-75
2021/05/04 01:47:49;;;;;;;3.98;3.30;;;;;;;0.15;75.49;99224.20;1715425;81;21214;-75
2021/05/04 01:50:16;;;;;;;7.28;3.30;;;;;;;0.11;75.53;99227.69;1748463;80;21224;-75
2021/05/04 01:52:43;;;;;;;9.83;5.25;;;;;;;0.04;75.46;99223.92;1717414;81;21040;-75
2021/05/04 01:55:13;;;;;;;7.15;3.90;;;;;;;-0.02;75.60;99228.70;1724748;81;21218;-75
2021/05/04 01:57:40;;;;;;;7.17;3.77;;;;;;;-0.06;75.67;99216.76;1725956;81;21210;-75
2021/05/04 02:00:09;;;;;;;7.75;4.55;;;;;;;-0.10;75.67;99213.83;1725091;81;21478;-75
2021/05/04 02:02:37;;;;;;;6.50;3.80;;;;;;;-0.12;75.76;99211.70;1717139;81;21080;-75
2021/05/04 02:05:05;;;;;;;;;;;;;;;-0.14;75.84;99209.17;1751048;80;21601;-75
2021/05/04 02:07:32;;;;;;;9.05;3.60;;;;;;;-0.17;75.96;99209.19;1705131;82;20317;-75
2021/05/04 02:09:59;;;;;;;7.10;3.98;;;;;;;-0.17;75.92;99218.61;1737456;80;21119;-75
2021/05/04 02:12:26;;;;;;;5.47;3.42;;;;;;;-0.20;75.97;99204.53;1750563;80;22125;-75
2021/05/04 02:14:54;;;;;;;5.30;3.83;;;;;;;-0.21;75.93;99207.98;1728556;81;21179;-75
2021/05/04 02:17:21;;;;;;;5.42;3.62;;;;;;;-0.24;76.00;99209.70;1735748;81;21156;-75
2021/05/04 02:19:48;;;;;;;4.40;3.65;;;;;;;-0.27;76.07;99213.59;1740666;80;21262;-75
2021/05/04 02:22:15;;;;;;;4.22;3.20;;;;;;;-0.30;76.04;99214.91;1735731;81;21567;-75
2021/05/04 02:24:43;;;;;;;6.60;3.87;;;;;;;-0.30;76.20;99208.50;1740303;80;21219;-75
2021/05/04 02:27:10;;;;;;;7.75;4.20;;;;;;;-0.29;76.35;99197.36;1740895;80;24059;-75
2021/05/04 02:29:37;;;;;;;4.53;3.50;;;;;;;-0.27;76.35;99189.22;1738514;80;21331;-75
2021/05/04 02:32:05;;;;;;;6.70;3.75;;;;;;;-0.24;76.47;99187.89;1733812;81;21168;-75
2021/05/04 02:34:32;;;;;;;;;;;;;;;-0.25;76.38;99200.76;1737471;81;21235;-75
2021/05/04 02:36:59;;;;;;;6.80;4.33;;;;;;;-0.26;76.40;99194.75;1737460;81;21403;-75
2021/05/04 02:39:26;;;;;;;4.25;3.70;;;;;;;-0.28;76.38;99195.23;1736872;81;21589;-75
2021/05/04 02:41:53;;;;;;;5.30;3.80;;;;;;;-0.30;76.39;99198.23;1739403;80;21215;-74
2021/05/04 02:44:20;;;;;;;5.58;3.52;;;;;;;-0.31;76.42;99196.55;1742153;81;21596;-75
2021/05/04 02:46:47;;;;;;;6.67;4.10;;;;;;;-0.32;76.48;99192.27;1741295;81;21163;-75
2021/05/04 02:49:14;;;;;;;5.42;4.00;;;;;;;-0.31;76.50;99188.85;1736124;81;21417;-75
2021/05/04 02:51:41;;;;;;;4.03;3.58;;;;;;;-0.30;76.63;99187.13;1734302;81;21622;-75
2021/05/04 02:54:08;;;;;;;4.33;3.85;;;;;;;-0.29;76.60;99189.66;1739789;81;21207;-75
2021/05/04 02:56:35;;;;;;;8.13;4.33;;;;;;;-0.28;76.67;99179.83;1739458;80;20981;-74
2021/05/04 02:59:02;;;;;;;7.78;4.62;;;;;;;-0.26;76.69;99174.23;1738474;80;21184;-75
2021/05/04 03:01:29;;;;;;;6.58;4.37;;;;;;;-0.25;76.73;99163.12;1742464;80;21212;-75
2021/05/04 03:03:56;;;;;;;8.03;4.97;;;;;;;-0.22;76.72;99162.23;1741527;80;21045;-75
2021/05/04 03:06:23;;;;;;;6.22;4.20;;;;;;;-0.19;76.76;99153.66;1739329;80;21648;-75
2021/05/04 03:08:50;;;;;;;5.72;3.90;;;;;;;-0.18;76.63;99145.08;1744106;80;21219;-75
2021/05/04 03:11:17;;;;;;;6.42;4.37;;;;;;;-0.16;76.66;99140.78;1747114;80;21311;-75
2021/05/04 03:13:44;;;;;;;6.22;3.92;;;;;;;-0.12;76.77;99134.72;1733746;81;21210;-75
2021/05/04 03:16:11;;;;;;;7.10;4.83;;;;;;;-0.06;76.79;99128.22;1712845;81;21609;-75
2021/05/04 03:18:38;;;;;;;7.50;4.60;;;;;;;0.03;76.93;99130.68;1707627;82;21182;-75
2021/05/04 03:21:05;;;;;;;5.87;4.50;;;;;;;0.16;76.94;99137.31;1711506;82;21649;-75
2021/05/04 03:23:32;;;;;;;8.63;4.35;;;;;;;0.28;76.83;99129.02;1720068;81;21246;-75
2021/05/04 03:25:59;;;;;;;5.92;4.47;;;;;;;0.37;76.89;99126.33;1711324;81;21132;-75
2021/05/04 03:28:26;;;;;;;5.12;4.53;;;;;;;0.86;77.45;99128.08;1699169;81;21176;-74
2021/05/04 03:30:53;;;;;;;7.80;4.85;;;;;;;1.76;77.47;99133.20;1715048;81;21239;-75
2021/05/04 03:33:20;;;;;;;5.60;4.35;;;;;;;2.68;77.20;99128.54;1712935;82;21227;-75
2021/05/04 03:35:46;;;;;;;5.97;4.22;;;;;;;3.56;76.60;99124.52;1717946;81;21651;-76
2021/05/04 03:38:14;;;;;;;6.10;3.70;;;;;;;4.42;76.25;99114.16;1722105;81;22159;-75
2021/05/04 03:40:41;;;;;;;4.37;3.42;;;;;;;5.24;75.47;99111.02;1716810;81;20978;-76
2021/05/04 03:43:08;;;;;;;4.58;3.60;;;;;;;5.93;74.76;99105.45;1719764;82;21667;-75
2021/05/04 03:45:35;;;;;;;6.40;3.98;;;;;;;6.60;74.95;99106.30;1715894;82;21201;-75
2021/05/04 03:48:02;;;;;;;7.08;4.00;;;;;;;7.13;74.33;99095.42;1710811;82;21227;-75
2021/05/04 03:50:29;;;;;;;7.17;4.33;;;;;;;7.65;74.18;99090.53;1708455;82;21500;-76
2021/05/04 03:52:59;;;;;;;6.42;4.42;;;;;;;8.03;73.59;99090.50;1711073;82;21207;-76
2021/05/04 03:55:26;;;;;;;6.97;4.78;;;;;;;8.06;73.18;99087.75;1715877;82;21086;-76
2021/05/04 03:57:53;;;;;;;7.25;5.58;;;;;;;7.67;72.49;99092.58;1712757;82;21682;-76
2021/05/04 04:00:21;;;;;;;6.05;4.70;;;;;;;7.05;72.91;99085.81;1710756;82;21261;-75
2021/05/04 04:02:49;;;;;;;8.73;4.60;;;;;;;6.53;73.06;99077.64;1707344;81;22352;-76
2021/05/04 04:05:16;;;;;;;6.03;4.03;;;;;;;6.12;73.52;99069.31;1706603;82;21256;-75
2021/05/04 04:07:43;;;;;;;5.17;3.80;;;;;;;5.84;73.73;99078.12;1713036;82;21458;-74
2021/05/04 04:10:12;;;;;;;4.33;3.92;;;;;;;5.64;74.16;99070.27;1704873;81;21211;-76
2021/05/04 04:12:40;;;;;;;5.28;4.00;;;;;;;5.58;74.37;99075.68;1709158;81;21262;-75
2021/05/04 04:15:10;;;;;;;6.22;3.87;;;;;;;5.63;74.77;99072.90;1719341;80;21776;-72
2021/05/04 04:17:37;;;;;;;5.80;3.72;;;;;;;5.84;74.99;99065.63;1732795;81;21900;-75
2021/05/04 04:20:07;;;;;;;6.47;4.45;;;;;;;6.44;75.18;99062.84;1740102;80;21071;-75
2021/05/04 04:22:35;;;;;;;7.78;4.00;;;;;;;7.15;74.94;99065.05;1740014;81;21700;-75
2021/05/04 04:25:06;;;;;;;5.60;3.92;;;;;;;7.94;74.67;99059.75;1738160;81;21548;-75
2021/05/04 04:27:33;;;;;;;5.75;4.42;;;;;;;8.57;74.15;99044.59;1739624;80;22079;-76
2021/05/04 04:30:00;;;;;;;4.17;3.77;;;;;;;8.94;73.57;99037.52;1739863;80;21669;-76
2021/05/04 04:32:27;;;;;;;4.45;4.05;;;;;;;8.94;72.48;99040.12;1740167;80;21115;-75
2021/05/04 04:34:54;;;;;;;;;;;;;;;8.56;72.27;99037.67;1736503;80;21248;-76
2021/05/04 04:37:21;;;;;;;5.35;3.33;;;;;;;8.24;72.27;99040.08;1738179;81;20251;-75
2021/05/04 04:39:48;;;;;;;5.28;3.95;;;;;;;7.97;73.02;99044.00;1740377;81;22765;-76
2021/05/04 04:42:16;;;;;;;5.78;4.17;;;;;;;7.80;72.98;99047.39;1737860;81;21074;-75
2021/05/04 04:44:43;;;;;;;5.40;4.47;;;;;;;7.60;72.98;99043.95;1738870;80;21200;-76
2021/05/04 04:47:12;;;;;;;5.15;4.20;;;;;;;7.38;73.24;99038.89;1737809;81;21100;-76
2021/05/04 04:49:40;;;;;;;4.08;3.67;;;;;;;7.26;73.37;99039.45;1736951;81;21178;-75
2021/05/04 04:52:07;;;;;;;6.30;4.42;;;;;;;7.06;73.18;99030.41;1739343;80;21501;-75
2021/05/04 04:54:34;;;;;;;7.22;4.87;;;;;;;6.86;73.21;99030.82;1745257;80;21083;-76
2021/05/04 04:57:02;;;;;;;6.20;4.62;;;;;;;6.69;73.55;99024.19;1740262;80;21612;-75
2021/05/04 04:59:29;;;;;;;4.92;4.42;;;;;;;6.57;73.58;99019.53;1740760;80;21885;-75
2021/05/04 05:01:58;;;;;;;8.55;5.05;;;;;;;6.44;73.58;99016.17;1741500;81;21156;-76
2021/05/04 05:04:25;;;;;;;5.78;5.03;;;;;;;6.34;73.67;99014.85;1744409;81;21211;-76
2021/05/04 05:06:52;;;;;;;5.15;4.45;;;;;;;6.27;73.83;99005.63;1736081;81;21093;-76
2021/05/04 05:09:19;;;;;;;10.28;5.25;;;;;;;6.21;73.72;99005.88;1738441;81;21177;-76
2021/05/04 05:11:46;;;;;;;5.97;4.97;;;;;;;6.17;73.67;99001.74;1744132;80;21279;-76
2021/05/04 05:14:15;;;;;;;9.35;5.60;;;;;;;6.13;73.85;99003.59;1741504;80;21220;-76
2021/05/04 05:16:42;;;;;;;7.22;5.53;;;;;;;6.18;74.05;98986.56;1731477;81;22876;-76
2021/05/04 05:19:09;;;;;;;13.50;6.47;;;;;;;6.27;73.94;98981.00;1758839;80;21088;-75
2021/05/04 05:21:37;;;;;;;11.22;6.20;;;;;;;6.39;73.93;98984.39;1720501;81;21227;-75
2021/05/04 05:24:05;;;;;;;8.38;5.30;;;;;;;6.49;73.80;98984.38;1736353;81;21033;-76
2021/05/04 05:26:33;;;;;;;7.17;5.80;;;;;;;6.57;73.69;98976.73;1745904;80;21666;-76
2021/05/04 05:29:00;;;;;;;;;;;;;;;6.70;73.51;98974.01;1755659;80;21674;-76
2021/05/04 05:31:30;;;;;;;7.15;5.92;;;;;;;6.84;73.59;98969.06;1747182;81;20249;-76
2021/05/04 05:33:56;;;;;;;7.78;6.25;;;;;;;6.98;73.50;98963.72;1754144;80;21180;-76
2021/05/04 05:36:23;;;;;;;8.93;6.28;;;;;;;7.09;73.54;98964.08;1752990;80;22005;-76
2021/05/04 05:38:50;;;;;;;9.30;5.17;;;;;;;7.23;73.46;98956.50;1753661;81;22188;-76
2021/05/04 05:41:17;;;;;;;12.37;5.55;;;;;;;7.36;73.35;98962.80;1758319;81;21277;-76
2021/05/04 05:43:44;;;;;;;7.53;5.95;;;;;;;7.47;73.25;98953.67;1754059;80;21068;-76
2021/05/04 05:46:11;;;;;;;8.28;5.22;;;;;;;7.50;73.16;98947.03;1755509;80;21577;-75
2021/05/04 05:48:39;;;;;;;7.72;5.40;;;;;;;7.59;73.19;98943.56;1751495;80;21070;-76
2021/05/04 05:51:06;;;;;;;7.53;5.70;;;;;;;7.72;73.19;98947.70;1744559;80;21186;-76
2021/05/04 05:53:33;;;;;;;6.95;6.15;;;;;;;7.90;73.10;98938.62;1725405;81;26716;-76
2021/05/04 05:56:00;;;;;;;9.48;6.67;;;;;;;8.05;72.94;98937.89;1748868;80;21175;-75
2021/05/04 05:58:27;;;;;;;9.48;6.60;;;;;;;8.24;73.03;98932.62;1754984;80;21649;-76
2021/05/04 06:00:56;;;;;;;8.88;6.50;;;;;;;8.42;72.82;98924.36;1755648;80;21284;-76
2021/05/04 06:03:23;;;;;;;10.55;6.90;;;;;;;8.65;72.55;98925.30;1755009;80;21208;-75
2021/05/04 06:05:51;;;;;;;11.10;7.55;;;;;;;8.84;72.81;98923.05;1751237;80;21244;-76
2021/05/04 06:08:18;;;;;;;11.78;7.42;;;;;;;9.03;72.46;98927.66;1757472;80;21094;-76
2021/05/04 06:10:46;;;;;;;9.85;7.35;;;;;;;9.07;72.12;98916.14;1760097;80;21637;-76
2021/05/04 06:13:14;;;;;;;22.67;8.83;;;;;;;9.12;72.08;98920.65;1740607;80;22371;-77
2021/05/04 06:15:41;;;;;;;164.90;26.65;;;;;;;9.23;71.96;98911.42;1725815;81;21279;-77
2021/05/04 06:18:08;;;;;;;234.72;36.60;;;;;;;9.33;72.10;98900.89;1728159;81;21235;-75
2021/05/04 06:20:35;;;;;;;;;;;;;;;9.52;71.85;98897.64;1737635;81;21225;-71
2021/05/04 06:23:03;;;;;;;52.75;11.63;;;;;;;9.70;71.84;98889.70;1698352;82;20310;-72
2021/05/04 06:25:32;;;;;;;13.28;7.22;;;;;;;9.90;71.72;98885.48;1743541;80;21990;-72
2021/05/04 06:28:04;;;;;;;12.43;7.00;;;;;;;10.16;71.70;98883.11;1741609;80;21186;-74
2021/05/04 06:30:33;;;;;;;8.30;6.22;;;;;;;10.35;71.42;98861.55;1742186;80;21297;-74
2021/05/04 06:33:04;;;;;;;42.00;9.58;;;;;;;10.77;71.36;98870.80;1744830;80;21171;-73
2021/05/04 06:35:34;;;;;;;100.33;17.27;;;;;;;11.16;71.31;98870.08;1749108;80;21072;-73
2021/05/04 06:38:02;;;;;;;89.42;17.17;;;;;;;11.39;70.47;98861.60;1729369;81;21166;-76
2021/05/04 06:40:29;;;;;;;18.17;6.10;;;;;;;11.65;70.60;98861.72;1728858;81;21631;-76
2021/05/04 06:42:56;;;;;;;8.30;4.70;;;;;;;11.84;69.73;98858.23;1722182;81;21859;-76
2021/05/04 06:45:22;;;;;;;5.10;4.35;;;;;;;12.02;69.55;98847.54;1728885;81;21134;-72
2021/05/04 06:47:50;;;;;;;5.25;4.47;;;;;;;12.05;69.28;98851.25;1732639;81;21167;-73
2021/05/04 06:50:17;;;;;;;5.30;4.10;;;;;;;12.17;69.58;98845.66;1732756;81;21215;-74
2021/05/04 06:52:44;;;;;;;5.85;4.47;;;;;;;12.41;69.16;98841.85;1738310;81;21220;-73
2021/05/04 06:55:11;;;;;;;6.33;4.65;;;;;;;12.65;69.29;98843.22;1735620;81;21291;-73
2021/05/04 06:57:39;;;;;;;4.95;4.05;;;;;;;12.84;68.56;98830.99;1729801;81;21218;-74
2021/05/04 07:00:08;;;;;;;6.92;4.50;;;;;;;12.81;68.25;98823.35;1736425;81;21211;-75
2021/05/04 07:02:36;;;;;;;6.97;4.92;;;;;;;12.79;68.16;98822.61;1729194;81;21013;-74
2021/05/04 07:05:06;;;;;;;5.58;4.75;;;;;;;12.89;68.43;98819.24;1733602;81;21200;-74
2021/05/04 07:07:33;;;;;;;7.55;4.65;;;;;;;12.99;67.49;98816.78;1730590;81;21621;-75
2021/05/04 07:10:01;;;;;;;5.60;4.33;;;;;;;12.95;67.87;98812.73;1736759;81;21207;-75
2021/05/04 07:12:28;;;;;;;8.15;4.40;;;;;;;13.13;66.55;98798.77;1737332;81;21208;-77
2021/05/04 07:14:55;;;;;;;7.10;4.62;;;;;;;13.02;66.97;98803.46;1735944;81;21211;-77
2021/05/04 07:17:23;;;;;;;6.22;4.67;;;;;;;13.09;67.28;98795.53;1743809;81;21238;-77
2021/05/04 07:19:51;;;;;;;9.23;4.35;;;;;;;13.19;67.62;98784.75;1732173;81;22753;-77
2021/05/04 07:22:21;;;;;;;5.97;4.72;;;;;;;13.28;67.10;98785.89;1735841;81;21669;-75
2021/05/04 07:24:47;;;;;;;6.28;4.37;;;;;;;13.19;66.71;98780.83;1739878;81;21239;-75
2021/05/04 07:27:14;;;;;;;4.87;3.92;;;;;;;13.15;66.91;98778.05;1708298;81;21255;-76
2021/05/04 07:29:41;;;;;;;10.28;4.97;;;;;;;13.14;66.43;98769.83;1736835;81;21183;-75
2021/05/04 07:32:09;;;;;;;5.78;4.33;;;;;;;13.10;66.53;98761.81;1735623;81;21277;-76
2021/05/04 07:34:37;;;;;;;5.10;4.15;;;;;;;13.17;66.74;98763.05;1722351;81;21225;-76
2021/05/04 07:37:04;;;;;;;;;;;;;;;13.19;65.97;98761.16;1729060;82;21230;-72
2021/05/04 07:39:31;;;;;;;7.10;4.58;;;;;;;13.16;65.73;98761.39;1721959;81;21377;-69
2021/05/04 07:41:58;;;;;;;5.85;4.40;;;;;;;13.10;66.06;98753.95;1723590;81;21221;-69
2021/05/04 07:44:25;;;;;;;10.50;4.67;;;;;;;13.13;65.75;98753.73;1736231;81;22461;-69
2021/05/04 07:46:52;;;;;;;8.30;4.92;;;;;;;13.12;65.49;98752.06;1688557;81;21307;-73
2021/05/04 07:49:31;;;;;;;7.62;4.80;;;;;;;13.16;65.63;98746.98;1735834;81;21247;-72
2021/05/04 07:51:53;;;;;;;7.05;4.30;;;;;;;13.19;65.30;98732.33;1733464;81;21907;-73
2021/05/04 07:54:21;;;;;;;8.23;4.80;;;;;;;13.29;64.95;98728.58;1732844;81;21908;-73
2021/05/04 07:56:47;;;;;;;;;;;;;;;13.32;64.67;98732.27;1741513;81;22102;-73
2021/05/04 07:59:14;;;;;;;7.20;4.53;;;;;;;13.34;64.44;98730.86;1737352;81;20280;-73
2021/05/04 08:01:41;;;;;;;9.05;4.15;;;;;;;13.42;64.96;98724.58;1737880;81;21271;-73
2021/05/04 08:04:10;;;;;;;6.37;4.20;;;;;;;13.55;64.43;98713.50;1723159;81;21582;-71
2021/05/04 08:06:37;;;;;;;7.83;4.47;;;;;;;13.68;64.26;98709.97;1749714;80;21195;-71
2021/05/04 08:09:05;;;;;;;5.55;4.58;;;;;;;13.66;63.84;98712.22;1717666;82;21239;-73
2021/05/04 08:11:32;;;;;;;7.78;4.67;;;;;;;13.66;64.04;98706.97;1726752;81;21688;-79
2021/05/04 08:13:59;;;;;;;;;;;;;;;13.73;63.80;98693.41;1725507;82;21615;-72
2021/05/04 08:16:28;;;;;;;7.00;4.08;;;;;;;13.62;62.02;98688.98;1753651;80;26815;-73
2021/05/04 08:18:55;;;;;;;4.67;4.17;;;;;;;13.42;62.79;98687.39;1771836;80;21717;-73
2021/05/04 08:21:23;;;;;;;6.67;4.37;;;;;;;13.31;62.26;98679.97;1766259;80;21206;-70
2021/05/04 08:23:53;;;;;;;6.25;4.47;;;;;;;13.15;62.37;98677.14;1769557;79;21752;-69
2021/05/04 08:26:20;;;;;;;6.72;3.80;;;;;;;13.09;62.32;98671.05;1777343;79;21156;-68
2021/05/04 08:28:48;;;;;;;9.85;4.17;;;;;;;13.37;63.06;98671.16;1777008;79;28342;-69
2021/05/04 08:31:16;;;;;;;20.40;5.35;;;;;;;13.53;62.21;98661.66;1754715;80;21134;-69
2021/05/04 08:33:42;;;;;;;52.93;9.90;;;;;;;13.61;61.35;98654.05;1754348;80;22128;-69
2021/05/04 08:36:09;;;;;;;30.17;7.75;;;;;;;13.63;61.88;98654.74;1750950;81;21630;-69
2021/05/04 08:38:36;;;;;;;51.80;9.75;;;;;;;13.78;61.99;98647.50;1751972;80;21060;-69
2021/05/04 08:41:07;;;;;;;275.48;38.63;;;;;;;13.98;62.15;98642.01;1755091;80;21680;-68
2021/05/04 08:43:36;;;;;;;49.38;9.60;;;;;;;14.25;61.65;98644.70;1748045;80;21706;-69
2021/05/04 08:46:04;;;;;;;96.10;16.12;;;;;;;14.34;61.32;98633.49;1771948;80;21167;-68
2021/05/04 08:48:31;;;;;;;29.02;7.00;;;;;;;14.40;60.85;98625.11;1752654;80;21321;-69
2021/05/04 08:51:01;;;;;;;27.07;7.42;;;;;;;14.38;60.56;98624.40;1753695;80;21214;-70
2021/05/04 08:53:28;;;;;;;30.40;8.30;;;;;;;14.53;60.43;98623.17;1769708;78;21161;-69
2021/05/04 08:55:55;;;;;;;5.22;3.92;;;;;;;14.52;59.92;98615.44;1738199;81;21619;-69
2021/05/04 08:58:23;;;;;;;152.85;30.70;;;;;;;14.39;59.85;98616.86;1775120;80;22350;-70
2021/05/04 09:00:54;;;;;;;7.62;4.70;;;;;;;14.41;60.18;98611.50;1744364;80;21056;-70
2021/05/04 09:03:32;;;;;;;11.60;6.30;;;;;;;14.36;59.37;98601.36;1754023;80;21064;-70
2021/05/04 09:06:04;;;;;;;6.50;4.50;;;;;;;14.30;59.70;98605.80;1773969;79;21113;-71
2021/05/04 09:08:44;;;;;;;12.10;4.85;;;;;;;14.38;59.25;98592.89;1770859;80;21254;-72
2021/05/04 09:11:31;;;;;;;68.28;11.57;;;;;;;14.35;59.53;98591.82;1774557;80;21451;-71
2021/05/04 09:14:14;;;;;;;9.88;5.25;;;;;;;14.38;59.25;98592.05;1753965;80;21025;-72
2021/05/04 09:16:48;;;;;;;24.98;7.42;;;;;;;14.45;59.30;98582.70;1772402;79;21224;-77
2021/05/04 09:19:23;;;;;;;14.13;5.50;;;;;;;14.43;58.55;98581.53;1745443;81;22500;-71
2021/05/04 09:21:47;;;;;;;26.42;6.90;;;;;;;14.37;59.08;98571.53;1749270;79;21690;-69
2021/05/04 09:24:42;;;;;;;7.12;4.85;;;;;;;14.44;59.15;98560.87;1775652;79;21202;-71
2021/05/04 09:27:15;;;;;;;7.83;3.83;;;;;;;14.48;58.69;98558.36;1739797;80;21679;-72
2021/05/04 09:29:47;;;;;;;9.18;5.10;;;;;;;14.44;58.07;98546.42;1756067;80;21704;-72
2021/05/04 09:32:19;;;;;;;8.93;4.83;;;;;;;14.31;58.05;98542.67;1773152;79;21305;-72
2021/05/04 09:34:59;;;;;;;8.03;4.55;;;;;;;14.20;57.75;98541.84;1774338;79;21563;-71
2021/05/04 09:37:36;;;;;;;14.35;7.08;;;;;;;14.21;57.75;98533.03;1770513;79;21197;-71
2021/05/04 09:40:26;;;;;;;6.22;4.42;;;;;;;14.22;57.62;98532.06;1769309;79;21622;-71
2021/05/04 09:43:18;;;;;;;9.90;4.92;;;;;;;14.31;57.65;98518.18;1773959;79;21184;-72
2021/05/04 09:45:57;;;;;;;7.87;4.80;;;;;;;14.43;56.69;98511.94;1832191;77;22742;-71
2021/05/04 09:48:32;;;;;;;61.18;10.10;;;;;;;14.32;56.18;98504.11;1800202;79;21024;-71
2021/05/04 09:51:15;;;;;;;8.20;4.08;;;;;;;14.29;56.75;98504.37;1795300;78;22101;-70
2021/05/04 09:56:36;;;;;;;5.42;4.37;;;;;;;14.51;56.83;98512.63;1767234;79;21301;-70
2021/05/04 09:59:05;;;;;;;18.10;5.90;;;;;;;14.55;56.53;98503.06;1764380;78;21089;-69
2021/05/04 10:01:32;;;;;;;6.78;4.75;;;;;;;14.49;56.07;98495.67;1766952;80;21625;-68
2021/05/04 10:04:01;;;;;;;17.23;4.85;;;;;;;14.38;55.78;98495.73;1771441;80;21221;-69
2021/05/04 10:06:28;;;;;;;35.58;6.85;;;;;;;14.22;55.71;98480.88;1771863;79;21064;-68
2021/05/04 10:08:58;;;;;;;87.12;15.83;;;;;;;14.09;55.75;98483.20;1770621;80;22095;-69
2021/05/04 10:11:26;;;;;;;59.50;15.08;;;;;;;14.18;56.00;98478.16;1770242;80;21001;-68
2021/05/04 10:13:58;;;;;;;9.68;5.22;;;;;;;14.23;56.04;98472.89;1772656;80;21076;-69
2021/05/04 10:16:28;;;;;;;6.25;4.47;;;;;;;14.39;55.81;98463.24;1763604;80;21176;-69
2021/05/04 10:19:01;;;;;;;21.02;6.83;;;;;;;14.43;55.79;98463.84;1767848;79;21195;-71
2021/05/04 10:21:30;;;;;;;6.92;4.80;;;;;;;14.47;55.57;98461.30;1767750;80;21698;-73
2021/05/04 10:23:59;;;;;;;13.05;5.25;;;;;;;14.51;55.22;98435.98;1770746;79;21650;-68
2021/05/04 10:26:30;;;;;;;9.35;5.83;;;;;;;14.33;54.79;98444.89;1770217;80;21101;-68
2021/05/04 10:29:02;;;;;;;10.43;5.30;;;;;;;14.29;55.17;98440.04;1769313;80;21228;-70
2021/05/04 20:11:54;;;;;;;11.45;6.42;;;;;;;8.14;66.67;97670.47;1765973;80;21276;-72
2021/05/04 20:14:21;;;;;;;8.88;5.58;;;;;;;8.12;66.60;97665.38;1745638;80;21271;-72
2021/05/04 20:16:48;;;;;;;9.05;5.33;;;;;;;8.11;66.70;97662.42;1764982;79;21165;-72
2021/05/04 20:19:16;;;;;;;7.83;4.95;;;;;;;8.11;66.83;97658.52;1758357;80;21221;-72
2021/05/04 20:21:43;;;;;;;7.00;4.55;;;;;;;8.12;66.80;97664.06;1754147;80;21177;-72
2021/05/04 20:24:12;;;;;;;9.00;4.90;;;;;;;8.16;66.95;97660.34;1757522;80;21286;-71
2021/05/04 20:26:39;;;;;;;5.42;4.50;;;;;;;8.23;66.98;97659.42;1755874;80;21151;-72
2021/05/04 20:29:06;;;;;;;5.12;3.98;;;;;;;8.25;66.91;97655.78;1765564;80;21224;-72
2021/05/04 20:31:33;;;;;;;9.00;4.50;;;;;;;8.27;66.90;97655.20;1760447;80;21209;-72
2021/05/04 20:34:00;;;;;;;7.72;4.62;;;;;;;8.35;67.07;97664.25;1757696;80;21186;-73
2021/05/04 20:36:29;;;;;;;5.25;2.67;;;;;;;8.43;67.09;97702.25;1757908;80;22140;-73
2021/05/04 20:38:56;;;;;;;6.47;1.70;;;;;;;8.53;66.81;97722.78;1766619;79;21195;-72
2021/05/04 20:41:24;;;;;;;4.95;1.62;;;;;;;8.54;66.38;97735.30;1761875;79;21207;-72
2021/05/04 20:43:52;;;;;;;1.57;1.12;;;;;;;8.48;66.27;97727.47;1771578;79;21650;-72
2021/05/04 20:46:19;;;;;;;1.22;0.70;;;;;;;8.39;66.19;97732.84;1762327;80;21193;-72
2021/05/04 20:48:47;;;;;;;1.05;0.60;;;;;;;8.27;66.20;97739.70;1766542;79;21586;-72
2021/05/04 20:51:14;;;;;;;1.62;0.80;;;;;;;8.15;66.21;97735.37;1760729;79;21704;-72
2021/05/04 20:53:41;;;;;;;1.02;0.75;;;;;;;8.06;66.39;97746.38;1761194;79;21198;-72
2021/05/04 20:56:08;;;;;;;1.67;0.72;;;;;;;7.97;66.38;97753.51;1763743;79;21225;-72
2021/05/04 20:58:35;;;;;;;1.87;0.75;;;;;;;7.90;66.42;97753.55;1760837;79;21195;-71
2021/05/04 21:01:02;;;;;;;1.55;1.00;;;;;;;7.83;66.46;97750.07;1762646;79;21325;-71
2021/05/04 21:03:29;;;;;;;2.12;0.78;;;;;;;7.78;66.57;97753.44;1763222;79;21240;-72
2021/05/04 21:05:56;;;;;;;3.12;1.00;;;;;;;7.73;66.78;97759.44;1761469;79;26816;-72
2021/05/04 21:08:29;;;;;;;2.72;0.90;;;;;;;7.65;66.72;97755.22;1765135;79;21236;-72
2021/05/04 21:11:01;;;;;;;1.30;0.70;;;;;;;7.58;66.81;97769.53;1747025;80;21220;-72
2021/05/04 21:13:27;;;;;;;1.00;0.90;;;;;;;7.51;66.98;97773.48;1759613;79;21200;-72
2021/05/04 21:15:54;;;;;;;4.95;2.02;;;;;;;7.40;67.01;97784.57;1759801;79;22446;-72
2021/05/04 21:18:22;;;;;;;;;;;;;;;7.31;67.15;97791.19;1765914;79;21203;-72
2021/05/04 21:20:57;;;;;;;2.50;1.20;;;;;;;7.22;67.48;97787.88;1730910;81;20396;-72
2021/05/04 21:23:49;;;;;;;2.58;1.40;;;;;;;7.12;67.52;97782.92;1762089;79;21541;-72
2021/05/04 21:28:35;;;;;;;2.33;1.50;;;;;;;6.99;67.73;97758.69;1745515;80;21237;-72
2021/05/04 21:31:03;;;;;;;3.47;1.50;;;;;;;6.93;67.97;97749.53;1748139;80;21140;-73